createdAt,value
2024-03-13T00:01:57.336Z,69.93
2024-03-13T00:04:42.953Z,66.37
2024-03-13T00:07:28.425Z,67.20
2024-03-13T00:10:13.859Z,70.93
2024-03-13T00:12:59.261Z,69.40
2024-03-13T00:15:44.288Z,69.23
2024-03-13T00:18:29.705Z,68.20
2024-03-13T00:21:14.694Z,62.97
2024-03-13T00:24:00.068Z,61.20
2024-03-13T00:26:45.021Z,61.90
2024-03-13T00:29:29.901Z,63.03
2024-03-13T00:32:15.978Z,61.97
2024-03-13T00:35:01.086Z,64.67
2024-03-13T00:37:45.976Z,61.13
2024-03-13T00:40:30.965Z,63.00
2024-03-13T00:43:15.991Z,63.23
2024-03-13T00:46:01.177Z,59.73
2024-03-13T00:48:46.395Z,63.27
2024-03-13T00:51:31.436Z,65.20
2024-03-13T00:54:17.321Z,63.67
2024-03-13T00:57:02.432Z,65.47
2024-03-13T00:59:47.428Z,65.57
2024-03-13T01:02:32.582Z,62.33
2024-03-13T01:05:17.477Z,59.33
2024-03-13T01:08:02.314Z,63.37
2024-03-13T01:10:47.174Z,68.27
2024-03-13T01:13:32.248Z,67.30
2024-03-13T01:16:17.527Z,64.60
2024-03-13T01:19:02.590Z,65.03
2024-03-13T01:21:48.509Z,66.57
2024-03-13T01:24:33.404Z,64.30
2024-03-13T01:27:18.491Z,64.60
2024-03-13T01:30:04.651Z,64.20
2024-03-13T01:32:49.887Z,63.80
2024-03-13T01:35:34.880Z,68.10
2024-03-13T01:38:19.853Z,63.30
2024-03-13T01:41:04.651Z,63.03
2024-03-13T01:43:57.055Z,59.17
2024-03-13T01:46:42.480Z,60.33
2024-03-13T01:49:28.062Z,63.03
2024-03-13T01:52:17.184Z,58.93
2024-03-13T01:55:08.923Z,56.83
2024-03-13T01:57:54.217Z,59.90
2024-03-13T02:00:39.416Z,60.67
2024-03-13T02:03:24.667Z,67.33
2024-03-13T02:06:09.645Z,62.17
2024-03-13T02:08:54.865Z,57.43
2024-03-13T02:11:40.015Z,61.10
2024-03-13T02:14:25.453Z,61.93
2024-03-13T02:17:10.840Z,64.50
2024-03-13T02:19:57.078Z,56.50
2024-03-13T02:22:42.447Z,59.27
2024-03-13T02:25:27.497Z,62.00
2024-03-13T02:28:12.418Z,60.93
2024-03-13T02:30:57.368Z,61.23
2024-03-13T02:33:42.139Z,59.70
2024-03-13T02:36:27.002Z,64.53
2024-03-13T02:39:12.327Z,59.80
2024-03-13T02:41:57.311Z,58.83
2024-03-13T02:44:42.160Z,55.57
2024-03-13T02:47:27.149Z,61.07
2024-03-13T02:50:12.685Z,58.07
2024-03-13T02:52:57.507Z,59.83
2024-03-13T02:55:42.549Z,57.60
2024-03-13T02:58:27.613Z,59.60
2024-03-13T03:01:13.702Z,58.97
2024-03-13T03:03:58.993Z,64.20
2024-03-13T03:06:43.852Z,55.23
2024-03-13T03:09:28.803Z,59.80
2024-03-13T03:12:13.661Z,56.43
2024-03-13T03:14:58.619Z,55.53
2024-03-13T03:17:43.558Z,56.13
2024-03-13T03:20:28.550Z,56.70
2024-03-13T03:23:13.324Z,56.47
2024-03-13T03:25:58.314Z,57.57
2024-03-13T03:28:43.218Z,54.87
2024-03-13T03:31:28.218Z,53.13
2024-03-13T03:34:13.610Z,57.73
2024-03-13T03:36:58.621Z,57.10
2024-03-13T03:39:43.579Z,55.43
2024-03-13T03:42:28.787Z,54.80
2024-03-13T03:45:13.767Z,54.50
2024-03-13T03:48:04.795Z,58.10
2024-03-13T03:50:55.623Z,58.63
2024-03-13T03:53:40.561Z,58.63
2024-03-13T03:56:25.694Z,60.70
2024-03-13T03:59:10.639Z,59.93
2024-03-13T04:01:55.704Z,64.00
2024-03-13T04:04:41.088Z,58.23
2024-03-13T04:07:25.996Z,54.70
2024-03-13T04:10:11.002Z,59.20
2024-03-13T04:12:55.978Z,59.07
2024-03-13T04:15:41.101Z,56.93
2024-03-13T04:18:25.920Z,56.03
2024-03-13T04:21:11.211Z,55.60
2024-03-13T04:23:56.276Z,53.40
2024-03-13T04:26:41.443Z,52.33
2024-03-13T04:29:32.113Z,53.33
2024-03-13T04:32:23.955Z,51.00
2024-03-13T04:35:09.384Z,54.37
2024-03-13T04:37:54.299Z,50.03
2024-03-13T04:40:39.704Z,53.47
2024-03-13T04:43:24.858Z,48.80
2024-03-13T04:46:17.202Z,50.93
2024-03-13T04:49:02.340Z,50.43
2024-03-13T04:51:47.484Z,51.70
2024-03-13T04:54:32.461Z,55.27
2024-03-13T04:57:17.339Z,49.00
2024-03-13T05:00:02.450Z,46.50
2024-03-13T05:02:47.554Z,50.53
2024-03-13T05:05:32.281Z,50.47
2024-03-13T05:08:17.269Z,48.30
2024-03-13T05:11:02.165Z,47.03
2024-03-13T05:13:47.200Z,47.00
2024-03-13T05:16:32.674Z,44.67
2024-03-13T05:19:17.970Z,46.03
2024-03-13T05:22:02.978Z,44.27
2024-03-13T05:24:47.901Z,44.77
2024-03-13T05:27:32.776Z,41.83
2024-03-13T05:30:18.047Z,41.43
2024-03-13T05:33:03.299Z,40.83
2024-03-13T05:35:48.132Z,42.10
2024-03-13T05:38:33.134Z,40.37
2024-03-13T05:41:17.972Z,38.67
2024-03-13T05:44:02.808Z,40.37
2024-03-13T05:46:47.898Z,37.60
2024-03-13T05:49:32.827Z,37.20
2024-03-13T05:52:17.708Z,34.13
2024-03-13T05:55:02.699Z,37.67
2024-03-13T05:57:47.974Z,36.37
2024-03-13T06:00:33.143Z,35.63
2024-03-13T06:03:18.242Z,36.07
2024-03-13T06:06:03.406Z,33.47
2024-03-13T06:08:48.588Z,34.87
2024-03-13T06:11:33.617Z,34.27
2024-03-13T06:14:19.010Z,31.83
2024-03-13T06:17:03.999Z,34.30
2024-03-13T06:19:49.024Z,31.27
2024-03-13T06:22:33.997Z,33.00
2024-03-13T06:25:19.372Z,31.87
2024-03-13T06:28:04.473Z,32.90
2024-03-13T06:30:49.492Z,32.43
2024-03-13T06:33:34.569Z,37.20
2024-03-13T06:36:19.794Z,33.63
2024-03-13T06:39:04.723Z,31.30
2024-03-13T06:41:49.553Z,34.97
2024-03-13T06:44:34.501Z,37.80
2024-03-13T06:47:19.381Z,35.43
2024-03-13T06:50:04.867Z,34.83
2024-03-13T06:52:49.680Z,32.47
2024-03-13T06:55:34.657Z,30.93
2024-03-13T06:58:19.932Z,30.90
2024-03-13T07:01:14.515Z,28.73
2024-03-13T07:04:00.011Z,30.30
2024-03-13T07:06:45.763Z,31.67
2024-03-13T07:09:30.912Z,28.83
2024-03-13T07:12:16.703Z,31.97
2024-03-13T07:15:01.865Z,32.43
2024-03-13T07:17:46.851Z,29.03
2024-03-13T07:20:32.242Z,28.73
2024-03-13T07:23:17.584Z,29.43
2024-03-13T07:26:02.536Z,30.37
2024-03-13T07:28:47.394Z,31.63
2024-03-13T07:31:32.397Z,29.20
2024-03-13T07:34:17.357Z,30.37
2024-03-13T07:37:02.312Z,27.87
2024-03-13T07:39:47.301Z,29.23
2024-03-13T07:42:33.105Z,28.50
2024-03-13T07:45:18.450Z,28.77
2024-03-13T07:48:03.427Z,29.63
2024-03-13T07:50:48.637Z,29.13
2024-03-13T07:53:34.309Z,28.20
2024-03-13T07:56:19.439Z,28.47
2024-03-13T07:59:05.168Z,29.97
2024-03-13T08:01:50.345Z,28.23
2024-03-13T08:04:35.817Z,30.47
2024-03-13T09:08:30.787Z,26.23
2024-03-13T09:11:24.606Z,27.27
2024-03-13T09:14:09.401Z,27.80
2024-03-13T09:16:54.351Z,27.00
2024-03-13T09:19:39.313Z,24.07
2024-03-13T09:22:24.178Z,25.13
2024-03-13T09:25:09.120Z,27.20
2024-03-13T09:27:54.087Z,25.57
2024-03-13T09:30:39.031Z,25.23
2024-03-13T09:33:24.022Z,26.87
2024-03-13T09:36:15.565Z,26.20
2024-03-13T09:39:00.963Z,27.50
2024-03-13T09:41:48.210Z,27.90
2024-03-13T09:44:33.649Z,25.50
2024-03-13T09:47:20.198Z,25.00
2024-03-13T09:50:06.946Z,24.33
2024-03-13T09:52:56.532Z,21.67
2024-03-13T09:55:42.093Z,24.50
2024-03-13T09:58:27.344Z,25.53
2024-03-13T10:01:21.486Z,23.63
2024-03-13T10:04:10.152Z,26.73
2024-03-13T10:06:59.886Z,24.77
2024-03-13T10:09:47.350Z,31.33
2024-03-13T10:12:33.399Z,27.20
2024-03-13T10:15:20.168Z,27.17
2024-03-13T10:18:16.337Z,24.40
2024-03-13T10:21:24.427Z,27.73
2024-03-13T10:24:11.100Z,26.20
2024-03-13T10:26:57.747Z,27.90
2024-03-13T10:29:44.074Z,26.00
2024-03-13T10:32:29.443Z,26.13
2024-03-13T10:35:14.285Z,27.07
2024-03-13T10:37:59.221Z,27.53
2024-03-13T10:40:44.188Z,26.03
2024-03-13T10:43:29.556Z,28.80
2024-03-13T10:46:14.492Z,25.17
2024-03-13T10:49:00.931Z,25.33
2024-03-13T10:51:46.425Z,23.47
2024-03-13T10:54:31.169Z,25.83
2024-03-13T10:57:19.468Z,27.00
2024-03-13T11:00:12.177Z,25.30
2024-03-13T11:02:57.404Z,25.03
2024-03-13T11:05:42.760Z,27.53
2024-03-13T11:08:28.181Z,25.13
2024-03-13T11:11:20.483Z,24.03
2024-03-13T11:14:11.072Z,25.73
2024-03-13T11:16:58.363Z,25.23
2024-03-13T11:19:43.748Z,27.10
2024-03-13T11:22:32.539Z,24.23
2024-03-13T11:25:18.837Z,23.13
2024-03-13T11:28:08.965Z,22.77
2024-03-13T11:30:54.634Z,22.17
2024-03-13T11:33:40.295Z,21.57
2024-03-13T11:36:26.773Z,22.43
2024-03-13T11:39:12.161Z,23.80
2024-03-13T11:42:07.140Z,19.80
2024-03-13T11:45:13.074Z,20.03
2024-03-13T11:48:00.940Z,21.07
2024-03-13T11:51:01.610Z,19.67
2024-03-13T11:53:47.070Z,20.90
2024-03-13T11:56:32.894Z,21.67
2024-03-13T11:59:18.298Z,21.63
2024-03-13T12:02:03.459Z,23.23
2024-03-13T12:04:48.333Z,23.40
2024-03-13T12:07:40.135Z,25.33
2024-03-13T12:10:26.182Z,25.23
2024-03-13T12:13:15.536Z,23.60
2024-03-13T12:16:00.603Z,26.03
2024-03-13T12:18:45.824Z,28.67
2024-03-13T12:21:30.965Z,29.80
2024-03-13T12:24:15.975Z,28.20
2024-03-13T12:27:00.843Z,31.77
2024-03-13T12:29:45.821Z,32.83
2024-03-13T12:32:30.866Z,33.40
2024-03-13T12:35:15.710Z,31.45
2024-03-13T12:38:00.638Z,32.13
2024-03-13T12:40:46.601Z,29.65
2024-03-13T12:43:31.562Z,33.37
2024-03-13T12:46:17.255Z,33.47
2024-03-13T12:49:02.498Z,35.17
2024-03-13T12:51:52.673Z,32.08
2024-03-13T12:54:37.917Z,34.33
2024-03-13T12:57:22.812Z,32.17
2024-03-13T13:00:10.073Z,31.23
2024-03-13T13:02:55.625Z,35.70
2024-03-13T13:05:42.091Z,33.05
2024-03-13T13:08:29.610Z,32.33
2024-03-13T13:11:14.537Z,32.97
2024-03-13T13:13:59.509Z,31.20
2024-03-13T13:16:44.537Z,36.47
2024-03-13T13:19:29.881Z,36.53
2024-03-13T13:22:14.777Z,38.17
2024-03-13T13:24:59.681Z,40.40
2024-03-13T13:27:45.001Z,41.47
2024-03-13T13:30:30.219Z,43.53
2024-03-13T13:33:15.790Z,44.93
2024-03-13T13:36:01.568Z,43.70
2024-03-13T13:38:46.726Z,50.90
2024-03-13T13:41:31.745Z,48.33
2024-03-13T13:44:16.571Z,46.37
2024-03-13T13:47:01.433Z,50.87
2024-03-13T13:49:46.252Z,46.47
2024-03-13T13:52:31.243Z,52.17
2024-03-13T13:55:17.593Z,54.70
2024-03-13T13:58:03.693Z,55.17
2024-03-13T14:00:48.540Z,53.60
2024-03-13T14:03:33.368Z,58.07
2024-03-13T14:06:18.448Z,64.82
2024-03-13T14:09:03.915Z,64.73
2024-03-13T14:11:48.942Z,69.97
2024-03-13T14:14:34.302Z,73.77
2024-03-13T14:17:19.101Z,70.80
2024-03-13T14:20:04.947Z,73.43
2024-03-13T14:22:50.027Z,78.07
2024-03-13T14:25:35.316Z,84.90
2024-03-13T14:28:20.333Z,80.43
2024-03-13T14:31:05.253Z,83.23
2024-03-13T14:33:50.303Z,84.93
2024-03-13T14:36:35.504Z,83.63
2024-03-13T14:39:20.921Z,91.00
2024-03-13T14:42:08.295Z,89.50
2024-03-13T14:45:01.257Z,89.38
2024-03-13T14:47:47.567Z,98.03
2024-03-13T14:50:33.025Z,104.83
2024-03-13T14:53:17.964Z,103.00
2024-03-13T14:56:03.068Z,95.50
2024-03-13T14:58:48.044Z,100.15
2024-03-13T15:01:32.949Z,107.95
2024-03-13T15:04:17.904Z,105.07
2024-03-13T15:07:02.799Z,103.60
2024-03-13T15:09:47.784Z,99.27
2024-03-13T15:12:32.721Z,103.27
2024-03-13T15:15:18.741Z,111.88
2024-03-13T15:18:04.076Z,103.63
2024-03-13T15:20:49.156Z,97.40
2024-03-13T15:23:34.150Z,85.10
2024-03-13T15:26:19.203Z,88.23
2024-03-13T15:29:04.505Z,86.30
2024-03-13T15:31:49.367Z,84.47
2024-03-13T15:34:34.265Z,82.80
2024-03-13T15:37:18.993Z,76.93
2024-03-13T15:40:04.314Z,78.27
2024-03-13T15:42:49.420Z,67.80
2024-03-13T15:45:35.143Z,67.57
2024-03-13T15:48:20.422Z,67.33
2024-03-13T15:51:05.530Z,61.23
2024-03-13T15:53:50.751Z,62.77
2024-03-13T15:56:35.929Z,61.77
2024-03-13T15:59:20.817Z,62.08
2024-03-13T16:02:06.033Z,60.03
2024-03-13T16:04:51.161Z,62.80
2024-03-13T16:07:36.374Z,63.35
2024-03-13T16:10:21.312Z,66.53
2024-03-13T16:13:06.429Z,68.83
2024-03-13T16:15:51.251Z,72.13
2024-03-13T16:18:36.334Z,70.73
2024-03-13T16:21:21.715Z,73.87
2024-03-13T16:24:07.019Z,68.73
2024-03-13T16:26:52.400Z,74.23
2024-03-13T16:32:22.183Z,76.97
2024-03-13T16:35:07.253Z,79.53
2024-03-13T16:37:52.512Z,79.70
2024-03-13T16:40:37.508Z,77.33
2024-03-13T16:43:22.335Z,75.53
2024-03-13T16:46:07.491Z,77.00
2024-03-13T16:48:52.713Z,83.33
2024-03-13T16:51:38.589Z,81.27
2024-03-13T16:54:23.461Z,77.80
2024-03-13T16:57:09.103Z,81.40
2024-03-13T16:59:54.237Z,86.43
2024-03-13T17:02:39.096Z,82.77
2024-03-13T17:05:24.180Z,90.93
2024-03-13T17:08:09.384Z,98.00
2024-03-13T17:10:54.252Z,94.83
2024-03-13T17:13:38.970Z,98.27
2024-03-13T17:16:23.856Z,96.67
2024-03-13T17:19:08.650Z,101.07
2024-03-13T17:21:53.599Z,104.90
2024-03-13T17:24:38.647Z,99.80
2024-03-13T17:27:23.589Z,109.23
2024-03-13T17:30:08.786Z,108.53
2024-03-13T17:32:54.122Z,106.33
2024-03-13T17:35:39.241Z,97.73
2024-03-13T17:38:24.069Z,106.60
2024-03-13T17:41:09.413Z,109.83
2024-03-13T17:43:54.461Z,109.93
2024-03-13T17:46:39.447Z,104.33
2024-03-13T17:49:24.431Z,108.03
2024-03-13T17:52:09.264Z,110.20
2024-03-13T17:54:54.792Z,114.00
2024-03-13T17:57:39.615Z,125.00
2024-03-13T18:00:24.580Z,115.33
2024-03-13T18:03:10.054Z,120.60
2024-03-13T18:05:55.501Z,117.47
2024-03-13T18:08:40.990Z,122.20
2024-03-13T18:11:25.851Z,113.60
2024-03-13T18:14:11.515Z,123.97
2024-03-13T18:16:56.741Z,130.67
2024-03-13T18:19:41.669Z,124.07
2024-03-13T18:22:26.633Z,113.47
2024-03-13T18:25:11.603Z,115.97
2024-03-13T18:27:56.530Z,111.47
2024-03-13T18:30:41.310Z,117.73
2024-03-13T18:33:26.370Z,116.10
2024-03-13T18:36:14.788Z,107.20
2024-03-13T18:38:59.761Z,114.73
2024-03-13T18:41:45.128Z,114.80
2024-03-13T18:44:32.261Z,111.13
2024-03-13T18:47:17.577Z,111.10
2024-03-13T18:50:03.480Z,113.87
2024-03-13T18:52:49.102Z,117.97
2024-03-13T18:55:34.442Z,124.20
2024-03-13T18:58:19.322Z,121.67
2024-03-13T19:01:04.433Z,117.53
2024-03-13T19:03:49.498Z,128.77
2024-03-13T19:06:34.708Z,126.53
2024-03-13T19:09:19.858Z,124.67
2024-03-13T19:12:04.873Z,120.80
2024-03-13T19:14:50.259Z,116.50
2024-03-13T19:17:35.274Z,114.90
2024-03-13T19:20:20.363Z,104.40
2024-03-13T19:23:06.150Z,98.90
2024-03-13T19:25:51.411Z,94.73
2024-03-13T19:28:36.585Z,99.07
2024-03-13T19:31:27.160Z,91.13
2024-03-13T19:34:19.845Z,87.80
2024-03-13T19:37:04.912Z,98.57
2024-03-13T19:39:49.798Z,77.67
2024-03-13T19:42:34.629Z,86.83
2024-03-13T19:45:19.631Z,88.63
2024-03-13T19:48:05.584Z,71.60
2024-03-13T19:50:50.817Z,77.10
2024-03-13T19:53:35.768Z,78.03
2024-03-13T19:56:20.759Z,74.73
2024-03-13T19:59:05.791Z,71.47
2024-03-13T20:01:50.662Z,64.10
2024-03-13T20:04:35.563Z,66.73
2024-03-13T20:07:20.591Z,71.73
2024-03-13T20:10:05.802Z,66.67
2024-03-13T20:12:51.276Z,71.60
2024-03-13T20:15:36.500Z,68.80
2024-03-13T20:18:22.031Z,71.13
2024-03-13T20:21:07.532Z,70.40
2024-03-13T20:23:52.456Z,65.57
2024-03-13T20:26:40.635Z,65.03
2024-03-13T20:29:26.001Z,62.17
2024-03-13T20:32:10.801Z,59.20
2024-03-13T20:34:55.774Z,64.37
2024-03-13T20:37:40.925Z,55.13
2024-03-13T20:40:26.039Z,55.17
2024-03-13T20:43:10.817Z,55.88
2024-03-13T20:45:55.655Z,51.37
2024-03-13T20:48:40.380Z,49.65
2024-03-13T20:51:25.917Z,47.67
2024-03-13T20:54:11.235Z,44.53
2024-03-13T20:56:56.351Z,43.00
2024-03-13T20:59:41.247Z,42.58
2024-03-13T21:02:26.267Z,36.67
2024-03-13T21:05:11.152Z,37.63
2024-03-13T21:07:55.963Z,40.60
2024-03-13T21:10:41.281Z,39.53
2024-03-13T21:13:26.237Z,40.10
2024-03-13T21:16:11.201Z,41.30
2024-03-13T21:18:56.090Z,40.20
2024-03-13T21:21:41.496Z,35.03
2024-03-13T21:24:26.456Z,34.17
2024-03-13T21:27:11.406Z,30.97
2024-03-13T21:29:56.331Z,28.67
2024-03-13T21:32:42.390Z,29.20
2024-03-13T21:35:27.520Z,29.83
2024-03-13T21:38:13.018Z,28.00
2024-03-13T21:41:00.154Z,28.00
2024-03-13T21:43:46.084Z,26.70
2024-03-13T21:46:31.420Z,27.47
2024-03-13T21:49:16.451Z,27.57
2024-03-13T21:52:01.335Z,28.83
2024-03-13T21:54:46.240Z,26.00
2024-03-13T21:57:31.063Z,27.47
2024-03-13T22:00:16.771Z,26.03
2024-03-13T22:03:02.173Z,28.63
2024-03-13T22:05:47.180Z,27.27
2024-03-13T22:08:32.422Z,26.53
2024-03-13T22:11:17.887Z,25.87
2024-03-13T22:14:02.944Z,27.37
2024-03-13T22:16:47.945Z,25.37
2024-03-13T22:19:32.752Z,23.20
2024-03-13T22:22:17.864Z,26.43
2024-03-13T22:25:03.062Z,28.27
2024-03-13T22:27:48.377Z,24.80
2024-03-13T22:30:33.786Z,26.07
2024-03-13T22:33:18.853Z,29.00
2024-03-13T22:36:04.836Z,23.83
2024-03-13T22:38:50.230Z,23.53
2024-03-13T22:41:35.142Z,23.07
2024-03-13T22:44:20.069Z,23.40
2024-03-13T22:47:05.951Z,22.30
2024-03-13T22:49:50.866Z,21.93
2024-03-13T22:52:35.737Z,23.67
2024-03-13T22:55:20.587Z,20.80
2024-03-13T22:58:05.631Z,20.00
2024-03-13T23:00:50.507Z,19.97
2024-03-13T23:03:35.665Z,19.47
2024-03-13T23:06:21.122Z,22.60
2024-03-13T23:09:06.361Z,21.53
2024-03-13T23:11:51.753Z,20.03
2024-03-13T23:14:36.732Z,19.57
2024-03-13T23:17:21.696Z,20.83
2024-03-13T23:20:07.707Z,21.33
2024-03-13T23:22:52.779Z,18.83
2024-03-13T23:25:37.807Z,20.67
2024-03-13T23:28:22.661Z,19.43
2024-03-13T23:31:10.927Z,18.20
2024-03-13T23:33:56.288Z,18.30
2024-03-13T23:36:41.457Z,20.10
2024-03-13T23:39:26.480Z,19.80
2024-03-13T23:42:11.430Z,20.07
2024-03-13T23:44:56.278Z,19.87
2024-03-13T23:47:42.429Z,19.93
2024-03-13T23:50:27.291Z,23.90
2024-03-13T23:53:12.389Z,22.33
2024-03-13T23:55:57.510Z,19.33
2024-03-13T23:58:42.688Z,24.80
